Time;durP1;ratioP1;P1;durP2;ratioP2;P2;SDS_P1;SDS_P2;PMS_P1;PMS_P2;Temp;Humidity;BMP_temperature;BMP_pressure;BME280_temperature;BME280_humidity;BME280_pressure;Samples;Min_cycle;Max_cycle;Signal;HPM_P1;HPM_P2
2022/09/23 00:01:31;;;;;;;14.40;6.28;;;10.90;99.90;;;;;;5126170;27;20054;-79
2022/09/23 00:03:58;;;;;;;10.18;5.90;;;10.90;99.90;;;;;;5124839;27;20511;-73
2022/09/23 00:06:24;;;;;;;12.57;6.63;;;10.90;99.90;;;;;;5133662;27;20488;-72
2022/09/23 00:08:50;;;;;;;;;;;10.90;99.90;;;;;;5126365;27;20042;-73
2022/09/23 00:11:23;;;;;;;10.45;6.32;;;11.00;99.90;;;;;;5150053;27;19922;-74
2022/09/23 00:13:52;;;;;;;13.63;6.43;;;11.10;99.90;;;;;;5114071;27;20047;-75
2022/09/23 00:16:22;;;;;;;11.82;5.57;;;11.00;99.90;;;;;;5128265;27;20054;-77
2022/09/23 00:18:49;;;;;;;16.02;7.22;;;11.10;99.90;;;;;;5117016;27;20039;-78
2022/09/23 00:21:15;;;;;;;13.20;6.00;;;11.10;99.90;;;;;;5131605;27;20043;-74
2022/09/23 00:23:41;;;;;;;;;;;11.10;99.90;;;;;;5134347;27;20039;-73
2022/09/23 00:26:10;;;;;;;11.80;5.88;;;11.00;99.90;;;;;;5097772;27;19915;-72
2022/09/23 00:28:37;;;;;;;11.77;6.25;;;11.00;99.90;;;;;;5114994;27;20110;-72
2022/09/23 00:31:07;;;;;;;;;;;10.90;99.90;;;;;;5114056;27;20188;-73
2022/09/23 00:33:33;;;;;;;10.02;5.68;;;10.90;99.90;;;;;;5120707;27;19920;-73
2022/09/23 00:36:04;;;;;;;8.95;5.30;;;10.90;99.90;;;;;;5116024;27;20051;-73
2022/09/23 00:38:30;;;;;;;10.52;5.90;;;10.90;99.90;;;;;;5103895;28;20051;-73
2022/09/23 00:40:57;;;;;;;9.20;5.70;;;10.90;99.90;;;;;;5104846;28;20039;-73
2022/09/23 00:43:42;;;;;;;8.77;5.72;;;11.00;99.90;;;;;;5110952;28;20491;-73
2022/09/23 00:46:12;;;;;;;10.35;5.70;;;11.00;99.90;;;;;;5097841;28;20043;-72
2022/09/23 00:48:41;;;;;;;12.45;6.18;;;11.00;99.90;;;;;;5094168;28;20085;-73
2022/09/23 00:51:10;;;;;;;9.68;6.13;;;11.00;99.90;;;;;;5111360;28;20043;-73
2022/09/23 00:53:37;;;;;;;9.88;5.72;;;11.00;99.90;;;;;;5120690;27;20040;-72
2022/09/23 00:56:06;;;;;;;9.48;5.55;;;11.00;99.90;;;;;;5103509;28;20396;-74
2022/09/23 00:58:34;;;;;;;9.98;5.97;;;11.00;99.90;;;;;;5126617;27;20036;-75
2022/09/23 01:01:01;;;;;;;11.45;5.97;;;11.00;99.90;;;;;;5110039;28;20055;-74
2022/09/23 01:03:28;;;;;;;11.75;6.50;;;11.00;99.90;;;;;;5108842;28;20542;-73
2022/09/23 01:05:55;;;;;;;10.90;6.10;;;11.00;99.90;;;;;;5105934;28;20039;-73
2022/09/23 01:08:22;;;;;;;10.63;5.70;;;10.90;99.90;;;;;;5112074;28;20051;-73
2022/09/23 01:10:51;;;;;;;12.48;6.50;;;10.90;99.90;;;;;;5112164;28;20047;-79
2022/09/23 01:13:42;;;;;;;9.05;5.70;;;10.80;99.90;;;;;;5111358;28;20078;-74
2022/09/23 01:16:27;;;;;;;9.68;5.78;;;10.80;99.90;;;;;;5110624;28;20047;-72
2022/09/23 01:19:08;;;;;;;11.82;6.55;;;10.80;99.90;;;;;;5105895;28;20051;-77
2022/09/23 01:21:55;;;;;;;10.23;5.80;;;10.80;99.90;;;;;;5105154;28;20216;-75
2022/09/23 01:24:30;;;;;;;10.98;5.65;;;10.70;99.90;;;;;;5095506;28;20208;-74
2022/09/23 01:27:18;;;;;;;13.23;6.18;;;10.70;99.90;;;;;;5111349;28;20047;-73
2022/09/23 01:30:03;;;;;;;13.60;6.57;;;10.70;99.90;;;;;;5092002;28;20052;-72
2022/09/23 01:32:30;;;;;;;14.23;6.25;;;10.60;99.90;;;;;;5096873;28;20515;-76
2022/09/23 01:35:09;;;;;;;;;;;10.60;99.90;;;;;;5120034;27;20054;-76
2022/09/23 01:37:45;;;;;;;12.50;6.65;;;10.60;99.90;;;;;;5132580;27;19922;-72
2022/09/23 01:40:23;;;;;;;10.38;5.88;;;10.60;99.90;;;;;;5131970;27;20117;-72
2022/09/23 01:43:02;;;;;;;10.70;6.78;;;10.60;99.90;;;;;;5132105;27;20050;-72
2022/09/23 01:45:34;;;;;;;9.50;5.97;;;10.50;99.90;;;;;;5097438;27;20047;-73
2022/09/23 01:48:09;;;;;;;11.38;6.47;;;10.50;99.90;;;;;;5109514;27;20075;-73
2022/09/23 01:50:56;;;;;;;9.55;5.68;;;10.50;99.90;;;;;;5113252;27;20043;-74
2022/09/23 01:53:49;;;;;;;12.85;5.78;;;10.40;99.90;;;;;;5112087;28;20042;-72
2022/09/23 01:56:39;;;;;;;9.63;6.05;;;10.40;99.90;;;;;;5110919;28;20051;-75
2022/09/23 01:59:08;;;;;;;11.30;6.05;;;10.40;99.90;;;;;;5110997;28;20169;-72
2022/09/23 02:01:43;;;;;;;10.63;6.53;;;10.40;99.90;;;;;;5123696;27;20047;-77
2022/09/23 02:04:18;;;;;;;10.65;5.90;;;10.40;99.90;;;;;;5122763;27;20042;-73
2022/09/23 02:06:57;;;;;;;10.30;5.93;;;10.40;99.90;;;;;;5111234;28;20048;-73
2022/09/23 02:09:27;;;;;;;10.70;6.15;;;10.30;99.90;;;;;;5114133;27;20051;-74
2022/09/23 02:12:00;;;;;;;11.23;6.57;;;10.30;99.90;;;;;;5131375;27;20035;-79
2022/09/23 02:14:35;;;;;;;14.02;6.00;;;10.30;99.90;;;;;;5113419;27;20051;-72
2022/09/23 02:17:09;;;;;;;10.98;6.13;;;10.30;99.90;;;;;;5094295;27;20094;-72
2022/09/23 02:19:46;;;;;;;10.82;6.30;;;10.20;99.90;;;;;;5131728;27;20046;-75
2022/09/23 02:22:24;;;;;;;9.23;5.68;;;10.20;99.90;;;;;;5131149;27;20078;-74
2022/09/23 02:24:50;;;;;;;12.80;6.38;;;10.20;99.90;;;;;;5131654;27;20248;-72
2022/09/23 02:27:34;;;;;;;10.35;6.25;;;10.20;99.90;;;;;;5129204;27;20483;-74
2022/09/23 02:30:20;;;;;;;13.10;6.25;;;10.10;99.90;;;;;;5130932;27;20062;-75
2022/09/23 02:33:03;;;;;;;11.85;6.80;;;10.10;99.90;;;;;;5129777;27;20105;-72
2022/09/23 02:35:41;;;;;;;13.52;7.20;;;10.10;99.90;;;;;;5130759;27;20395;-73
2022/09/23 02:38:19;;;;;;;13.70;6.85;;;10.10;99.90;;;;;;5130773;27;20380;-74
2022/09/23 02:41:31;;;;;;;14.63;5.78;;;10.10;99.90;;;;;;5131652;27;20087;-72
2022/09/23 02:44:06;;;;;;;14.13;5.85;;;10.10;99.90;;;;;;5122235;27;20078;-79
2022/09/23 02:46:32;;;;;;;10.80;6.30;;;10.00;99.90;;;;;;5130098;27;20035;-75
2022/09/23 02:49:09;;;;;;;10.30;6.07;;;10.00;99.90;;;;;;5130333;27;20067;-77
2022/09/23 02:51:37;;;;;;;8.90;5.60;;;10.00;99.90;;;;;;5130637;27;20043;-71
2022/09/23 02:54:06;;;;;;;10.10;5.72;;;9.90;99.90;;;;;;5130069;28;20388;-72
2022/09/23 02:56:32;;;;;;;10.98;6.22;;;9.90;99.90;;;;;;5130804;28;20050;-72
2022/09/23 02:58:58;;;;;;;12.32;6.07;;;9.80;99.90;;;;;;5130517;28;20047;-78
2022/09/23 03:01:31;;;;;;;10.07;6.38;;;9.80;99.90;;;;;;5129595;28;20053;-72
2022/09/23 03:04:04;;;;;;;11.55;6.30;;;9.80;99.90;;;;;;5130343;28;20043;-77
2022/09/23 03:07:11;;;;;;;10.93;5.85;;;9.80;99.90;;;;;;5118462;28;20051;-76
2022/09/23 03:09:53;;;;;;;8.82;5.85;;;9.70;99.90;;;;;;5047174;28;20121;-73
2022/09/23 03:12:36;;;;;;;11.65;6.35;;;9.60;99.90;;;;;;5106406;28;20043;-71
2022/09/23 03:15:47;;;;;;;9.93;5.97;;;9.60;99.90;;;;;;5111948;28;20046;-77
2022/09/23 03:18:24;;;;;;;10.60;6.57;;;9.60;99.90;;;;;;5128704;28;20050;-72
2022/09/23 03:20:57;;;;;;;10.27;6.38;;;9.60;99.90;;;;;;5131419;28;20062;-72
2022/09/23 03:23:27;;;;;;;9.73;6.15;;;9.50;99.90;;;;;;5131101;28;20051;-71
2022/09/23 03:25:56;;;;;;;9.95;6.45;;;9.50;99.90;;;;;;5131023;28;20202;-72
2022/09/23 03:28:24;;;;;;;15.38;5.90;;;9.40;99.90;;;;;;5130339;28;20523;-72
2022/09/23 03:30:51;;;;;;;9.50;5.68;;;9.40;99.90;;;;;;5131090;28;20039;-75
2022/09/23 03:33:21;;;;;;;11.40;7.07;;;9.40;99.90;;;;;;5128690;27;20039;-72
2022/09/23 03:38:42;;;;;;;10.80;6.05;;;9.30;99.90;;;;;;5120823;28;20054;-72
2022/09/23 03:41:10;;;;;;;9.63;6.20;;;9.30;99.90;;;;;;5112169;28;20047;-73
2022/09/23 03:43:38;;;;;;;9.82;5.85;;;9.20;99.90;;;;;;5130487;28;20065;-71
2022/09/23 03:46:05;;;;;;;11.32;6.68;;;9.20;99.90;;;;;;5129391;27;20143;-77
2022/09/23 03:48:31;;;;;;;11.05;6.93;;;9.20;99.90;;;;;;5114954;27;20127;-71
2022/09/23 03:50:57;;;;;;;11.32;6.35;;;9.20;99.90;;;;;;5116124;27;20079;-73
2022/09/23 03:53:23;;;;;;;11.70;6.60;;;9.20;99.90;;;;;;5133423;27;20130;-71
2022/09/23 03:55:48;;;;;;;10.45;6.32;;;9.20;99.90;;;;;;5134297;27;20058;-71
2022/09/23 03:58:14;;;;;;;11.73;6.78;;;9.10;99.90;;;;;;5133249;27;20046;-71
2022/09/23 04:00:41;;;;;;;;;;;9.10;99.90;;;;;;5135086;27;20060;-72
2022/09/23 04:03:06;;;;;;;12.23;6.93;;;9.10;99.90;;;;;;5131982;27;19919;-78
2022/09/23 04:05:32;;;;;;;11.10;6.63;;;9.00;99.90;;;;;;5113151;28;20180;-74
2022/09/23 04:07:58;;;;;;;10.10;6.93;;;9.00;99.90;;;;;;5113448;28;20047;-71
2022/09/23 04:10:23;;;;;;;11.48;6.10;;;9.00;99.90;;;;;;5095035;28;20100;-72
2022/09/23 04:12:49;;;;;;;10.20;6.50;;;9.00;99.90;;;;;;5095011;28;20047;-72
2022/09/23 04:15:15;;;;;;;16.50;6.70;;;9.00;99.90;;;;;;5095031;28;20047;-71
2022/09/23 04:17:40;;;;;;;13.27;6.68;;;9.00;99.90;;;;;;5120982;27;20107;-72
2022/09/23 04:20:06;;;;;;;9.95;6.45;;;8.90;99.90;;;;;;5105401;27;20043;-76
2022/09/23 04:22:33;;;;;;;15.73;6.70;;;8.90;99.90;;;;;;5133730;27;20046;-75
2022/09/23 04:24:58;;;;;;;;;;;8.90;99.90;;;;;;5134106;27;20361;-71
2022/09/23 04:27:24;;;;;;;11.55;6.55;;;8.90;99.90;;;;;;5097815;27;19980;-73
2022/09/23 04:29:50;;;;;;;12.48;6.43;;;8.80;99.90;;;;;;5133731;27;20035;-75
2022/09/23 04:32:15;;;;;;;11.02;6.20;;;8.90;99.90;;;;;;5131380;27;20039;-73
2022/09/23 04:34:41;;;;;;;9.75;5.78;;;8.90;99.90;;;;;;5133189;27;20111;-71
2022/09/23 04:37:07;;;;;;;11.57;6.20;;;8.90;99.90;;;;;;5133337;27;20038;-78
2022/09/23 04:39:33;;;;;;;9.88;6.63;;;8.80;99.90;;;;;;5127416;27;20043;-72
2022/09/23 04:41:58;;;;;;;12.27;6.65;;;8.80;99.90;;;;;;5109019;27;20039;-72
2022/09/23 04:44:26;;;;;;;13.13;6.70;;;8.80;99.90;;;;;;5114625;27;20051;-73
2022/09/23 04:46:52;;;;;;;10.07;5.85;;;8.80;99.90;;;;;;5096721;27;20089;-78
2022/09/23 04:49:18;;;;;;;10.52;6.43;;;8.80;99.90;;;;;;5132850;27;20066;-72
2022/09/23 04:51:43;;;;;;;10.43;6.53;;;8.80;99.90;;;;;;5133359;27;20576;-72
2022/09/23 04:54:11;;;;;;;12.15;6.70;;;8.70;99.90;;;;;;5114504;27;20046;-78
2022/09/23 04:56:37;;;;;;;10.98;6.35;;;8.60;99.90;;;;;;5132886;27;20075;-72
2022/09/23 04:59:02;;;;;;;11.20;6.40;;;8.70;99.90;;;;;;5113944;27;20379;-72
2022/09/23 05:01:33;;;;;;;15.30;8.10;;;8.70;99.90;;;;;;5131047;27;20039;-75
2022/09/23 05:04:12;;;;;;;9.73;6.10;;;8.70;99.90;;;;;;5132581;27;20039;-71
2022/09/23 05:06:37;;;;;;;12.75;6.28;;;8.60;99.90;;;;;;5133065;27;20085;-72
2022/09/23 05:09:05;;;;;;;19.08;6.88;;;8.60;99.90;;;;;;5124480;27;20059;-73
2022/09/23 05:11:31;;;;;;;11.95;6.38;;;8.60;99.90;;;;;;5131915;27;20039;-72
2022/09/23 05:13:57;;;;;;;12.32;6.90;;;8.60;99.90;;;;;;5114209;27;20053;-77
2022/09/23 05:16:23;;;;;;;;;;;8.60;99.90;;;;;;5124939;27;20088;-72
2022/09/23 05:18:50;;;;;;;11.15;6.30;;;8.60;99.90;;;;;;5111557;28;19915;-72
2022/09/23 05:21:17;;;;;;;13.50;6.97;;;8.60;99.90;;;;;;5111849;28;20055;-72
2022/09/23 05:23:48;;;;;;;10.43;6.63;;;8.60;99.90;;;;;;5112393;28;20039;-72
2022/09/23 05:26:14;;;;;;;10.15;6.32;;;8.60;99.90;;;;;;5093539;28;20083;-77
2022/09/23 05:28:40;;;;;;;11.13;7.00;;;8.60;99.90;;;;;;5111989;28;20047;-74
2022/09/23 05:31:07;;;;;;;10.45;6.35;;;8.60;99.90;;;;;;5093385;28;20050;-73
2022/09/23 05:33:35;;;;;;;14.90;6.82;;;8.60;99.90;;;;;;5110226;28;20134;-73
2022/09/23 05:36:01;;;;;;;11.45;7.07;;;8.60;99.90;;;;;;5093751;28;20104;-72
2022/09/23 05:38:28;;;;;;;12.07;6.43;;;8.60;99.90;;;;;;5111325;28;20131;-73
2022/09/23 05:40:58;;;;;;;9.98;6.40;;;8.60;99.90;;;;;;5124665;27;20483;-72
2022/09/23 05:43:24;;;;;;;11.90;6.15;;;8.60;99.90;;;;;;5110825;28;20035;-72
2022/09/23 05:45:50;;;;;;;12.38;6.38;;;8.60;99.90;;;;;;5118394;27;20039;-75
2022/09/23 05:48:17;;;;;;;10.50;6.20;;;8.60;99.90;;;;;;5130015;27;20046;-78
2022/09/23 05:50:49;;;;;;;;;;;8.50;99.90;;;;;;5116735;27;20039;-71
2022/09/23 05:53:15;;;;;;;10.77;6.57;;;8.60;99.90;;;;;;5152636;27;20300;-79
2022/09/23 05:55:40;;;;;;;11.20;6.40;;;8.50;99.90;;;;;;5134292;27;20043;-72
2022/09/23 05:58:06;;;;;;;13.10;6.70;;;8.60;99.90;;;;;;5152172;27;20070;-72
2022/09/23 06:00:32;;;;;;;12.98;6.95;;;8.60;99.90;;;;;;5147437;27;20566;-72
2022/09/23 06:02:57;;;;;;;13.48;7.05;;;8.60;99.90;;;;;;5126091;27;20372;-72
2022/09/23 06:05:23;;;;;;;11.00;6.63;;;8.70;99.90;;;;;;5092742;28;20050;-74
2022/09/23 06:07:49;;;;;;;12.13;6.63;;;8.70;99.90;;;;;;5093154;28;20043;-72
2022/09/23 06:10:15;;;;;;;9.98;6.15;;;8.70;99.90;;;;;;5087984;27;20041;-79
2022/09/23 06:12:43;;;;;;;12.45;6.85;;;8.80;99.90;;;;;;5130866;27;20047;-72
2022/09/23 06:15:10;;;;;;;11.07;6.47;;;8.80;99.90;;;;;;5096726;27;20043;-75
2022/09/23 06:17:36;;;;;;;10.88;6.45;;;8.80;99.90;;;;;;5128948;27;20069;-72
2022/09/23 06:20:02;;;;;;;12.70;7.05;;;8.90;99.90;;;;;;5131519;27;20535;-72
2022/09/23 06:22:28;;;;;;;11.05;6.85;;;8.90;99.90;;;;;;5119290;27;20040;-72
2022/09/23 06:24:54;;;;;;;9.43;6.38;;;9.00;99.90;;;;;;5130740;27;20039;-76
2022/09/23 06:27:19;;;;;;;11.60;6.68;;;9.10;99.90;;;;;;5130698;27;20059;-79
2022/09/23 06:29:45;;;;;;;11.30;6.15;;;9.10;99.90;;;;;;5137654;27;20050;-72
2022/09/23 06:32:10;;;;;;;10.95;6.45;;;9.10;99.90;;;;;;5131342;27;20090;-78
2022/09/23 06:34:36;;;;;;;19.65;7.72;;;9.10;99.90;;;;;;5130812;27;20059;-81
2022/09/23 06:37:02;;;;;;;15.30;6.80;;;9.20;99.90;;;;;;5113121;27;20058;-76
2022/09/23 06:39:28;;;;;;;11.75;7.35;;;9.20;99.90;;;;;;5130374;27;20088;-80
2022/09/23 06:41:54;;;;;;;;;;;9.30;99.90;;;;;;5131148;27;20131;-79
2022/09/23 06:44:20;;;;;;;13.80;7.18;;;9.30;99.90;;;;;;5127943;27;19958;-76
2022/09/23 06:46:45;;;;;;;14.40;7.75;;;9.40;99.90;;;;;;5112244;27;20047;-74
2022/09/23 06:49:11;;;;;;;11.73;7.05;;;9.50;99.90;;;;;;5133094;27;20054;-73
2022/09/23 06:51:38;;;;;;;15.05;7.80;;;9.60;99.90;;;;;;5114804;28;20054;-72
2022/09/23 06:54:03;;;;;;;;;;;9.60;99.90;;;;;;5133707;28;20047;-71
2022/09/23 06:56:29;;;;;;;14.63;7.30;;;9.70;99.90;;;;;;5132365;28;19915;-74
2022/09/23 06:58:55;;;;;;;12.93;7.32;;;9.80;99.90;;;;;;5133034;28;20126;-74
2022/09/23 07:01:22;;;;;;;12.57;6.88;;;9.80;99.90;;;;;;5132488;28;20131;-79
2022/09/23 07:03:47;;;;;;;14.05;7.97;;;9.90;99.90;;;;;;5133108;28;20065;-74
2022/09/23 07:06:13;;;;;;;11.50;7.00;;;10.00;99.90;;;;;;5124196;28;20532;-72
2022/09/23 07:08:43;;;;;;;12.40;7.07;;;10.00;99.90;;;;;;5112611;28;20048;-71
2022/09/23 07:11:11;;;;;;;20.10;7.75;;;10.10;99.90;;;;;;5112966;28;20045;-72
2022/09/23 07:13:36;;;;;;;12.35;7.43;;;10.20;99.90;;;;;;5094371;28;20044;-71
2022/09/23 07:16:02;;;;;;;10.10;6.65;;;10.20;99.90;;;;;;5117835;28;20035;-71
2022/09/23 07:18:33;;;;;;;12.38;7.18;;;10.30;99.90;;;;;;5132365;28;20472;-73
2022/09/23 07:21:17;;;;;;;14.15;7.05;;;10.30;99.90;;;;;;5115020;27;20039;-75
2022/09/23 07:23:52;;;;;;;14.57;6.43;;;10.40;99.90;;;;;;5118886;27;20468;-72
2022/09/23 07:26:19;;;;;;;13.65;6.75;;;10.40;99.90;;;;;;5131872;27;20075;-72
2022/09/23 07:28:45;;;;;;;11.30;7.13;;;10.50;99.90;;;;;;5116298;28;20047;-72
2022/09/23 07:31:13;;;;;;;12.82;6.60;;;10.60;99.90;;;;;;5116065;28;20097;-73
2022/09/23 07:33:42;;;;;;;15.48;7.38;;;10.60;99.90;;;;;;5115370;28;20047;-72
2022/09/23 07:36:18;;;;;;;11.40;6.85;;;10.70;99.90;;;;;;5123299;27;20058;-78
2022/09/23 07:38:46;;;;;;;14.70;7.40;;;10.80;99.90;;;;;;5146775;27;20039;-77
2022/09/23 07:41:15;;;;;;;15.02;8.07;;;10.80;99.90;;;;;;5154839;27;20837;-78
2022/09/23 07:43:40;;;;;;;15.35;7.97;;;10.90;99.90;;;;;;5154187;27;20046;-77
2022/09/23 07:46:10;;;;;;;19.45;8.25;;;10.90;99.90;;;;;;5152572;27;20103;-77
2022/09/23 07:48:37;;;;;;;13.88;7.85;;;11.10;99.90;;;;;;5111971;28;20150;-76
2022/09/23 07:51:31;;;;;;;14.13;7.05;;;11.30;99.90;;;;;;5113878;28;20094;-70
2022/09/23 07:53:57;;;;;;;17.38;7.10;;;11.30;99.90;;;;;;5145435;27;20042;-71
2022/09/23 07:56:24;;;;;;;;;;;11.40;99.90;;;;;;5125304;27;20113;-76
2022/09/23 07:58:58;;;;;;;11.05;5.85;;;11.60;99.90;;;;;;5124271;27;19915;-71
2022/09/23 08:01:28;;;;;;;10.50;6.00;;;11.60;99.90;;;;;;5139099;27;20046;-74
2022/09/23 08:04:00;;;;;;;12.65;6.18;;;11.70;99.90;;;;;;5138453;27;20039;-70
2022/09/23 08:06:26;;;;;;;12.05;5.68;;;11.70;99.90;;;;;;5123746;27;20805;-79
2022/09/23 08:08:52;;;;;;;13.73;7.03;;;11.80;99.90;;;;;;5143354;27;20063;-72
2022/09/23 08:11:18;;;;;;;9.70;5.65;;;11.90;99.90;;;;;;5141044;27;20039;-76
2022/09/23 08:13:44;;;;;;;12.43;6.05;;;12.00;99.90;;;;;;5123093;27;20042;-74
2022/09/23 08:16:09;;;;;;;12.70;5.57;;;12.10;99.90;;;;;;5119073;27;20084;-75
2022/09/23 08:18:35;;;;;;;11.18;6.00;;;12.20;99.90;;;;;;5126447;27;20040;-73
2022/09/23 08:21:02;;;;;;;9.80;5.47;;;12.20;99.90;;;;;;5117359;27;20385;-75
2022/09/23 08:23:32;;;;;;;10.95;5.78;;;12.30;99.90;;;;;;5125990;27;20039;-79
2022/09/23 08:26:00;;;;;;;13.82;6.00;;;12.30;99.90;;;;;;5141910;27;20035;-72
2022/09/23 08:28:26;;;;;;;11.75;5.95;;;12.40;99.90;;;;;;5140526;27;20047;-77
2022/09/23 08:30:52;;;;;;;9.75;5.95;;;12.50;99.90;;;;;;5135084;27;20035;-77
2022/09/23 08:33:18;;;;;;;14.38;5.97;;;12.60;99.90;;;;;;5126029;27;20043;-72
2022/09/23 08:35:43;;;;;;;11.63;5.60;;;12.60;99.90;;;;;;5144309;27;20475;-73
2022/09/23 08:38:09;;;;;;;12.20;5.32;;;12.80;99.90;;;;;;5128831;27;20037;-73
2022/09/23 08:40:43;;;;;;;10.80;5.45;;;12.80;99.90;;;;;;5148815;27;20081;-73
2022/09/23 08:43:26;;;;;;;13.65;5.32;;;12.90;99.90;;;;;;5147044;27;20042;-73
2022/09/23 08:45:54;;;;;;;12.10;5.50;;;13.10;99.90;;;;;;5148522;27;20035;-78
2022/09/23 08:48:35;;;;;;;9.93;5.15;;;13.10;99.90;;;;;;5150219;27;20031;-72
2022/09/23 08:51:05;;;;;;;10.95;5.60;;;13.20;99.90;;;;;;5151540;27;20460;-74
2022/09/23 08:53:35;;;;;;;12.63;5.28;;;13.20;99.90;;;;;;5139470;27;20124;-78
2022/09/23 08:56:11;;;;;;;14.27;5.95;;;13.20;99.90;;;;;;5131479;27;20099;-72
2022/09/23 08:58:41;;;;;;;10.07;5.65;;;13.40;99.90;;;;;;5146105;27;20447;-76
2022/09/23 09:01:29;;;;;;;8.20;4.82;;;13.40;99.90;;;;;;5148908;27;20038;-77
2022/09/23 09:04:00;;;;;;;10.23;5.18;;;13.50;99.90;;;;;;5130895;27;20125;-72
2022/09/23 09:06:38;;;;;;;8.85;4.90;;;13.60;99.90;;;;;;5145066;27;20046;-74
2022/09/23 09:09:11;;;;;;;8.52;4.82;;;13.60;99.90;;;;;;5147469;27;20038;-77
2022/09/23 09:11:42;;;;;;;10.50;5.10;;;13.70;99.90;;;;;;5144031;27;20039;-73
2022/09/23 09:14:25;;;;;;;11.13;5.10;;;13.80;99.90;;;;;;5136891;27;20102;-79
2022/09/23 09:17:01;;;;;;;11.77;4.75;;;13.70;99.90;;;;;;5128939;27;20074;-74
2022/09/23 09:19:54;;;;;;;9.52;5.50;;;13.80;99.90;;;;;;5110025;28;20055;-76
2022/09/23 09:22:56;;;;;;;10.55;4.60;;;13.90;99.90;;;;;;5120831;27;20049;-71
2022/09/23 09:25:42;;;;;;;11.93;4.85;;;14.00;99.90;;;;;;5129546;27;20613;-71
2022/09/23 09:28:17;;;;;;;9.65;4.88;;;14.20;99.90;;;;;;5124425;27;20050;-72
2022/09/23 09:30:44;;;;;;;9.40;4.88;;;14.30;99.90;;;;;;5118375;27;20035;-73
2022/09/23 09:33:14;;;;;;;12.65;5.10;;;14.30;99.90;;;;;;5085012;28;20396;-71
2022/09/23 09:36:12;;;;;;;9.10;5.22;;;14.30;99.90;;;;;;5129479;27;20035;-72
2022/09/23 09:38:37;;;;;;;11.70;5.05;;;14.40;99.90;;;;;;5132480;27;20043;-74
2022/09/23 09:41:17;;;;;;;10.38;5.25;;;14.50;99.90;;;;;;5139400;27;20042;-71
2022/09/23 09:43:47;;;;;;;9.57;4.88;;;14.50;99.90;;;;;;5136773;27;20035;-76
2022/09/23 09:46:44;;;;;;;9.55;5.18;;;14.70;99.90;;;;;;5137784;27;20477;-74
2022/09/23 09:49:23;;;;;;;9.67;5.33;;;14.70;99.90;;;;;;5102557;27;20037;-73
2022/09/23 09:52:12;;;;;;;10.73;5.43;;;14.80;99.90;;;;;;5132592;27;20080;-71
2022/09/23 09:54:38;;;;;;;9.00;4.75;;;14.90;99.90;;;;;;5119528;27;20069;-77
2022/09/23 09:57:34;;;;;;;9.02;5.10;;;15.00;99.90;;;;;;5132434;27;20475;-73
2022/09/23 10:00:25;;;;;;;11.07;5.18;;;15.10;99.90;;;;;;5110482;27;20054;-73
2022/09/23 10:03:15;;;;;;;14.00;5.13;;;15.20;99.90;;;;;;5112181;27;20043;-72
2022/09/23 10:05:44;;;;;;;8.85;5.32;;;15.40;99.90;;;;;;5112765;27;20055;-74
2022/09/23 10:08:33;;;;;;;10.88;5.65;;;15.50;99.90;;;;;;5145933;27;20039;-71
2022/09/23 10:11:00;;;;;;;8.57;5.43;;;15.60;99.90;;;;;;5129721;27;20039;-71
2022/09/23 10:13:28;;;;;;;10.43;5.55;;;15.80;99.90;;;;;;5101959;27;20099;-71
2022/09/23 10:15:54;;;;;;;10.23;5.05;;;15.80;99.90;;;;;;5115769;27;20043;-77
2022/09/23 10:18:46;;;;;;;10.05;5.20;;;15.90;99.90;;;;;;5140775;27;20047;-73
2022/09/23 10:21:14;;;;;;;10.57;4.68;;;15.80;99.90;;;;;;5120827;27;20053;-71
2022/09/23 10:24:07;;;;;;;12.10;5.07;;;15.80;99.90;;;;;;5131924;27;20042;-72
2022/09/23 10:26:50;;;;;;;9.45;4.95;;;15.80;99.90;;;;;;5128587;27;20055;-71
2022/09/23 10:29:29;;;;;;;11.07;5.28;;;15.70;99.90;;;;;;5114209;27;20129;-71
2022/09/23 10:32:16;;;;;;;9.38;4.80;;;15.70;99.90;;;;;;5112443;27;20530;-74
2022/09/23 10:34:45;;;;;;;14.70;5.07;;;15.60;99.90;;;;;;5117681;27;20130;-71
2022/09/23 10:37:16;;;;;;;14.07;5.57;;;15.60;99.90;;;;;;5128030;27;20066;-71
2022/09/23 10:48:35;;;;;;;12.00;5.55;;;15.60;99.90;;;;;;5110436;27;20122;-73
2022/09/23 10:51:13;;;;;;;10.15;4.70;;;15.60;99.90;;;;;;5111179;27;20048;-71
2022/09/23 10:54:08;;;;;;;8.32;4.50;;;15.60;99.90;;;;;;5118322;27;20433;-78
2022/09/23 10:56:39;;;;;;;10.38;4.50;;;15.70;99.90;;;;;;5129477;27;20084;-71
2022/09/23 10:59:26;;;;;;;10.15;4.78;;;15.70;99.90;;;;;;5130242;28;20043;-71
2022/09/23 11:02:16;;;;;;;9.90;4.57;;;15.80;99.90;;;;;;5108470;28;20131;-78
2022/09/23 11:05:14;;;;;;;10.25;4.68;;;15.80;99.90;;;;;;5128582;27;20468;-79
2022/09/23 11:07:59;;;;;;;10.77;4.78;;;15.90;99.90;;;;;;5128276;27;20484;-78
2022/09/23 11:11:10;;;;;;;6.95;4.13;;;16.00;99.90;;;;;;5114628;28;20353;-71
2022/09/23 11:14:02;;;;;;;9.38;4.93;;;16.10;99.90;;;;;;5099245;27;20049;-71
2022/09/23 11:16:52;;;;;;;11.27;4.78;;;16.30;99.90;;;;;;5128077;27;20047;-70
2022/09/23 11:19:42;;;;;;;7.78;4.45;;;16.40;99.90;;;;;;5108394;28;20516;-74
2022/09/23 11:22:40;;;;;;;7.57;4.68;;;16.50;99.90;;;;;;5110609;28;20039;-73
2022/09/23 11:25:29;;;;;;;;;;;16.50;99.90;;;;;;5121878;28;20040;-73
2022/09/23 11:28:33;;;;;;;9.30;4.65;;;16.60;99.90;;;;;;5138155;27;19915;-73
2022/09/23 11:31:34;;;;;;;8.43;4.63;;;16.60;99.90;;;;;;5124725;28;20779;-73
2022/09/23 11:34:18;;;;;;;11.40;4.57;;;16.60;99.90;;;;;;5115451;28;20040;-74
2022/09/23 11:37:07;;;;;;;9.73;4.57;;;16.60;99.90;;;;;;5129750;28;20051;-79
2022/09/23 11:39:50;;;;;;;14.55;5.70;;;16.60;99.90;;;;;;5130663;28;20035;-75
2022/09/23 11:42:30;;;;;;;9.68;4.50;;;16.60;99.90;;;;;;5115326;27;20743;-71
2022/09/23 11:45:06;;;;;;;17.35;4.97;;;16.60;99.90;;;;;;5109910;28;20119;-72
2022/09/23 11:47:47;;;;;;;9.75;4.82;;;16.70;99.90;;;;;;5107277;28;20494;-75
2022/09/23 11:50:43;;;;;;;10.13;4.68;;;16.70;99.90;;;;;;5131045;28;20491;-71
2022/09/23 11:53:33;;;;;;;9.05;4.70;;;16.70;99.90;;;;;;5115720;27;20047;-71
2022/09/23 11:56:37;;;;;;;10.27;4.72;;;16.70;99.90;;;;;;5129112;27;20114;-72
2022/09/23 11:59:20;;;;;;;11.52;4.50;;;16.70;99.90;;;;;;5098495;27;20517;-71
2022/09/23 12:01:53;;;;;;;9.73;4.60;;;16.80;99.90;;;;;;5136887;27;20039;-75
2022/09/23 12:04:42;;;;;;;12.20;4.70;;;16.80;99.90;;;;;;5143347;27;20031;-71
2022/09/23 12:07:13;;;;;;;10.98;4.60;;;16.80;99.90;;;;;;5132438;27;20043;-72
2022/09/23 12:10:05;;;;;;;9.43;4.65;;;16.80;99.90;;;;;;5151841;27;20046;-75
2022/09/23 12:12:53;;;;;;;9.88;4.55;;;16.80;99.90;;;;;;5124741;27;20100;-71
2022/09/23 12:15:42;;;;;;;10.05;4.90;;;16.80;99.90;;;;;;5149854;27;20464;-72
2022/09/23 12:18:16;;;;;;;6.63;4.32;;;16.80;99.90;;;;;;5135707;27;20054;-74
2022/09/23 12:21:00;;;;;;;10.15;4.63;;;16.80;99.90;;;;;;5104929;27;20058;-70
2022/09/23 12:23:31;;;;;;;9.75;4.53;;;16.80;99.90;;;;;;5134037;27;20042;-74
2022/09/23 12:26:02;;;;;;;9.57;4.15;;;16.90;99.90;;;;;;5134380;27;20498;-71
2022/09/23 12:28:34;;;;;;;8.45;4.28;;;16.90;99.90;;;;;;5139863;27;20047;-72
2022/09/23 12:31:04;;;;;;;13.98;4.90;;;16.90;99.90;;;;;;5112767;28;20053;-72
2022/09/23 12:33:32;;;;;;;9.30;4.20;;;16.90;99.90;;;;;;5138577;27;20038;-72
2022/09/23 12:36:05;;;;;;;8.95;4.93;;;16.90;99.90;;;;;;5145599;27;20045;-71
2022/09/23 12:38:48;;;;;;;9.38;4.63;;;16.90;99.90;;;;;;5131831;27;20035;-72
2022/09/23 12:41:22;;;;;;;10.55;4.25;;;16.90;99.90;;;;;;5140873;27;20031;-70
2022/09/23 12:44:14;;;;;;;9.80;4.95;;;16.90;99.90;;;;;;5138463;27;20091;-73
2022/09/23 12:46:44;;;;;;;8.05;4.85;;;16.90;99.90;;;;;;5135393;27;20053;-72
2022/09/23 12:49:26;;;;;;;8.02;4.18;;;16.80;99.90;;;;;;5124753;27;20047;-71
2022/09/23 12:52:15;;;;;;;8.98;4.57;;;16.80;99.90;;;;;;5135456;27;20540;-77
2022/09/23 12:54:49;;;;;;;8.50;4.70;;;16.80;99.90;;;;;;5135991;27;20383;-70
2022/09/23 12:57:33;;;;;;;10.95;4.82;;;16.80;99.90;;;;;;5132907;27;20047;-80
2022/09/23 13:00:21;;;;;;;8.75;4.38;;;16.90;99.90;;;;;;5132726;27;20054;-82
2022/09/23 13:06:37;;;;;;;10.13;4.53;;;16.90;99.90;;;;;;5131366;27;20038;-76
2022/09/23 13:08:25;;;;;;;11.85;4.60;;;16.80;99.90;;;;;;5143982;27;20134;-74
2022/09/23 13:10:58;;;;;;;11.32;5.18;;;16.80;99.90;;;;;;5142131;27;20046;-79
2022/09/23 13:13:30;;;;;;;9.30;4.78;;;16.80;99.90;;;;;;5141911;27;20125;-74
2022/09/23 13:16:19;;;;;;;13.07;4.93;;;16.80;99.90;;;;;;5139770;27;20081;-79
2022/09/23 13:19:01;;;;;;;10.00;4.72;;;16.90;99.90;;;;;;5131295;27;20043;-73
2022/09/23 13:21:59;;;;;;;8.65;4.78;;;16.80;99.90;;;;;;5141126;27;20382;-74
2022/09/23 13:24:27;;;;;;;8.88;4.80;;;16.90;99.90;;;;;;5132941;27;20122;-76
2022/09/23 13:27:04;;;;;;;11.68;4.80;;;16.90;99.90;;;;;;5129938;27;20054;-77
2022/09/23 13:29:52;;;;;;;9.82;4.40;;;16.90;99.90;;;;;;5122155;27;20042;-75
2022/09/23 13:32:20;;;;;;;8.73;4.50;;;16.90;99.90;;;;;;5139479;27;20057;-75
2022/09/23 13:34:57;;;;;;;10.32;4.30;;;17.00;99.90;;;;;;5143084;27;20034;-76